Aeroporto :
LOGIN :

Iscrizione | Disclaimer

   EN    FR    IT 

 










Sommario :    VFR   VFR Marginale   IFR   IFR Intensivo   IFR Molto Intensivo
Visibilità : 
Base nubi : 
>= 8 km
>= 3000ft
5 / 8 km
1000 / 3000 ft
1500m / 5 km
500 / 1000 ft
800 / 1500m
200 / 500 ft
< 800m
< 200 ft
Simboli :   Temporali  Nebbia  Neve Forte  Precipitazioni Forti  Vento > 20 kt
SIGMETs :   Varie  Temporali  Ghiacco  Turbolenza  Onda orograficha  Ceneri Vulcaniche






- Altitudine del aeroporto : 231 ft
- Codice IATA : WTN


EGXW - RAF Waddington

ULTIMO METAR :
  • 032150Z AUTO 26004KT 1100 BR BKN001/// BKN014/// 04/03 Q0976

METARs OBSOLETI :
  • 032050Z AUTO 34004KT 6000 BR FEW003/// OVC012/// 04/03 Q0975 RERA
  • 031950Z AUTO 32005KT 7000 -RA BKN003/// BKN009/// 04/03 Q0976

TAF TAF EGXW
Valido dal 03 a 18 ore il 04 a 12 ore UTC


031656Z 0318/0412 VRB03KT 9999 BKN016
TEMPO 0318/0412 6000 RA BKN008
PROB40
TEMPO 0318/0412 3000 RADZ BKN004
PROB30
TEMPO 0318/0322 2000 SCT001 BKN004
PROB30
TEMPO 0322/0406 SCT002



MetMap, La meteo Aeronautica in un colpo d'occhio ! - Copyright ORBIFLY Dicembre 2007 - Disclaimer

ORBIFLY MET'MAP TEAM :

Programmazione e sviluppo : Alexandra Zaïnal
Concezione : Baudouin d'Aumeries
Aiuto per la programmazione : Marc-Olivier Méhu
Supporto tecnico e logistico : Manuel Goepfert
Aiuto per la traduzione : Arnaldo La Scala

Contatto : metmap@orbifly.com




FONTI E CREDITI :

   NOAA